createdAt,value
2023-02-14T00:01:40.587Z,99984.44
2023-02-14T00:04:10.089Z,99979.78
2023-02-14T00:06:39.017Z,99986.00
2023-02-14T00:09:07.924Z,99974.69
2023-02-14T00:11:35.996Z,99974.28
2023-02-14T00:14:21.656Z,99982.50
2023-02-14T00:16:49.754Z,99989.13
2023-02-14T00:19:21.135Z,99984.44
2023-02-14T00:21:49.318Z,99986.78
2023-02-14T00:24:20.509Z,99986.38
2023-02-14T00:26:49.460Z,99996.91
2023-02-14T00:29:20.713Z,99990.28
2023-02-14T00:31:48.986Z,99988.34
2023-02-14T00:34:20.374Z,99992.22
2023-02-14T00:36:48.999Z,99987.53
2023-02-14T00:39:18.903Z,99985.22
2023-02-14T00:41:47.571Z,99986.41
2023-02-14T00:44:18.362Z,99987.56
2023-02-14T00:46:46.728Z,99980.94
2023-02-14T00:49:14.905Z,99973.91
2023-02-14T00:51:44.338Z,99974.31
2023-02-14T00:54:12.477Z,99970.78
2023-02-14T00:56:40.581Z,99975.06
2023-02-14T00:59:10.652Z,99963.38
2023-02-14T01:01:38.912Z,99965.34
2023-02-14T01:04:07.713Z,99958.31
2023-02-14T01:06:35.932Z,99965.72
2023-02-14T01:09:05.540Z,99973.06
2023-02-14T01:11:34.506Z,99962.97
2023-02-14T01:14:02.555Z,99968.06
2023-02-14T01:16:31.524Z,99975.75
2023-02-14T01:19:01.449Z,99980.53
2023-02-14T01:21:32.598Z,99978.22
2023-02-14T01:24:02.921Z,99981.72
2023-02-14T01:26:32.501Z,99977.00
2023-02-14T01:29:03.022Z,99975.25
2023-02-14T01:31:34.315Z,99972.13
2023-02-14T01:34:03.015Z,99973.25
2023-02-14T01:36:33.424Z,99970.63
2023-02-14T01:39:03.434Z,99976.53
2023-02-14T01:41:35.964Z,99977.31
2023-02-14T01:44:07.425Z,99968.38
2023-02-14T01:46:37.051Z,99947.69
2023-02-14T01:49:11.671Z,99951.28
2023-02-14T01:51:44.315Z,99959.00
2023-02-14T01:54:13.359Z,99958.31
2023-02-14T01:56:46.892Z,99961.34
2023-02-14T01:59:20.678Z,99947.28
2023-02-14T02:01:51.641Z,99951.28
2023-02-14T02:04:24.989Z,99959.00
2023-02-14T02:06:57.472Z,99956.34
2023-02-14T02:09:34.210Z,99946.25
2023-02-14T02:12:04.877Z,99949.75
2023-02-14T02:14:34.174Z,99951.69
2023-02-14T02:17:18.840Z,99963.78
2023-02-14T02:20:17.643Z,99952.09
2023-02-14T02:23:13.612Z,99958.72
2023-02-14T02:26:34.754Z,99957.94
2023-02-14T02:29:29.035Z,99968.06
2023-02-14T02:32:30.418Z,99962.59
2023-02-14T02:35:37.077Z,99955.19
2023-02-14T02:38:21.431Z,99957.53
2023-02-14T02:41:03.053Z,99943.50
2023-02-14T02:43:44.728Z,99954.03
2023-02-14T02:46:40.127Z,99950.91
2023-02-14T02:49:39.537Z,99946.59
2023-02-14T02:52:35.377Z,99945.84
2023-02-14T02:55:09.047Z,99947.00
2023-02-14T02:57:40.397Z,99944.28
2023-02-14T03:00:13.490Z,99942.72
2023-02-14T03:03:03.004Z,99936.09
2023-02-14T03:05:35.222Z,99942.31
2023-02-14T03:08:05.697Z,99951.69
2023-02-14T03:10:37.408Z,99942.34
2023-02-14T03:13:28.440Z,99958.69
2023-02-14T03:16:31.307Z,99965.34
2023-02-14T03:19:16.607Z,99959.50
2023-02-14T03:21:52.392Z,99963.78
2023-02-14T03:24:28.831Z,99967.69
2023-02-14T03:27:05.622Z,99960.66
2023-02-14T03:29:45.513Z,99970.00
2023-02-14T03:32:21.161Z,99972.75
2023-02-14T03:34:55.825Z,99966.06
2023-02-14T03:37:30.110Z,99967.25
2023-02-14T03:40:06.724Z,99964.53
2023-02-14T03:42:40.524Z,99965.72
2023-02-14T03:45:13.474Z,99960.66
2023-02-14T03:47:44.534Z,99964.53
2023-02-14T03:50:17.631Z,99954.44
2023-02-14T03:52:47.646Z,99965.69
2023-02-14T03:55:23.784Z,99969.63
2023-02-14T03:57:57.319Z,99966.09
2023-02-14T04:00:25.956Z,99966.13
2023-02-14T04:02:58.338Z,99968.84
2023-02-14T04:05:28.877Z,99972.75
2023-02-14T04:07:59.224Z,99966.91
2023-02-14T04:10:28.762Z,99961.78
2023-02-14T04:12:56.844Z,99963.00
2023-02-14T04:15:24.916Z,99961.03
2023-02-14T04:18:10.199Z,99964.56
2023-02-14T04:20:38.332Z,99973.94
2023-02-14T04:23:06.374Z,99973.88
2023-02-14T04:25:35.787Z,99974.69
2023-02-14T04:28:03.849Z,99977.81
2023-02-14T04:30:31.930Z,99983.66
2023-02-14T04:33:00.017Z,99970.75
2023-02-14T04:35:28.102Z,99974.69
2023-02-14T04:37:56.136Z,99973.13
2023-02-14T04:40:24.137Z,99984.44
2023-02-14T04:42:53.627Z,99983.66
2023-02-14T04:45:21.752Z,99976.63
2023-02-14T04:47:50.062Z,99967.28
2023-02-14T04:50:19.275Z,99968.06
2023-02-14T04:52:47.368Z,99969.63
2023-02-14T04:55:15.544Z,99971.91
2023-02-14T04:57:43.583Z,99978.97
2023-02-14T05:00:14.556Z,99971.13
2023-02-14T05:02:42.631Z,99976.63
2023-02-14T05:05:10.970Z,99978.19
2023-02-14T05:07:39.022Z,99971.91
2023-02-14T05:10:07.884Z,99984.44
2023-02-14T05:12:36.181Z,99980.53
2023-02-14T05:15:04.373Z,99984.81
2023-02-14T05:17:33.855Z,99989.09
2023-02-14T05:20:01.921Z,99979.00
2023-02-14T05:22:30.067Z,99970.00
2023-02-14T05:24:58.365Z,99970.81
2023-02-14T05:27:26.526Z,99975.50
2023-02-14T05:29:54.664Z,99975.84
2023-02-14T05:32:22.779Z,99978.59
2023-02-14T05:34:52.152Z,99984.72
2023-02-14T05:37:20.296Z,99973.50
2023-02-14T05:39:48.360Z,99985.22
2023-02-14T05:42:16.530Z,99989.84
2023-02-14T05:44:44.725Z,99993.81
2023-02-14T05:47:13.294Z,99995.34
2023-02-14T05:49:41.432Z,99992.22
2023-02-14T05:52:11.369Z,99986.38
2023-02-14T05:54:39.411Z,99988.72
2023-02-14T05:57:07.571Z,99993.78
2023-02-14T05:59:35.581Z,99993.41
2023-02-14T06:02:03.818Z,100000.81
2023-02-14T06:04:31.929Z,99994.19
2023-02-14T06:07:00.000Z,99983.66
2023-02-14T06:09:29.453Z,99987.56
2023-02-14T06:11:57.501Z,99996.53
2023-02-14T06:14:25.914Z,99994.97
2023-02-14T06:16:54.008Z,100000.03
2023-02-14T06:19:22.237Z,99998.09
2023-02-14T06:21:50.358Z,99999.25
2023-02-14T06:24:18.555Z,99992.25
2023-02-14T06:26:47.990Z,100002.00
2023-02-14T06:29:18.414Z,99980.53
2023-02-14T06:31:46.630Z,100003.56
2023-02-14T06:34:16.130Z,99993.38
2023-02-14T06:36:44.303Z,100005.47
2023-02-14T06:39:12.412Z,100002.00
2023-02-14T06:41:40.438Z,100005.47
2023-02-14T06:44:10.616Z,100003.94
2023-02-14T06:46:38.773Z,99998.88
2023-02-14T06:49:06.800Z,100014.06
2023-02-14T06:51:34.940Z,100000.03
2023-02-14T06:54:02.988Z,100012.13
2023-02-14T06:56:31.107Z,100012.50
2023-02-14T06:58:59.130Z,100021.09
2023-02-14T07:01:28.573Z,100009.78
2023-02-14T07:03:56.613Z,100025.38
2023-02-14T07:06:24.733Z,100030.72
2023-02-14T07:08:52.923Z,100038.97
2023-02-14T07:11:21.080Z,100027.91
2023-02-14T07:13:49.575Z,100037.84
2023-02-14T07:16:17.850Z,100035.09
2023-02-14T07:18:47.343Z,100036.94
2023-02-14T07:21:15.505Z,100031.97
2023-02-14T07:23:46.390Z,100054.09
2023-02-14T07:26:18.186Z,100035.50
2023-02-14T07:28:46.508Z,100043.56
2023-02-14T07:31:14.671Z,100046.78
2023-02-14T07:33:42.785Z,100041.31
2023-02-14T07:36:12.902Z,100037.47
2023-02-14T07:38:41.041Z,100039.72
2023-02-14T07:41:09.043Z,100036.25
2023-02-14T07:43:37.138Z,100045.16
2023-02-14T07:46:05.413Z,100032.31
2023-02-14T07:48:34.447Z,100047.94
2023-02-14T07:51:03.402Z,100035.91
2023-02-14T07:53:32.982Z,100034.75
2023-02-14T07:56:01.166Z,100037.78
2023-02-14T07:58:29.200Z,100030.81
2023-02-14T08:00:57.334Z,100034.28
2023-02-14T08:03:25.567Z,100038.63
2023-02-14T08:05:57.388Z,100028.13
2023-02-14T08:08:26.927Z,100047.63
2023-02-14T08:10:56.503Z,100043.31
2023-02-14T08:13:24.536Z,100042.94
2023-02-14T08:16:15.599Z,100030.78
2023-02-14T08:18:44.483Z,100034.72
2023-02-14T08:21:12.493Z,100041.78
2023-02-14T08:23:40.563Z,100046.44
2023-02-14T08:26:10.442Z,100037.88
2023-02-14T08:28:38.444Z,100042.16
2023-02-14T08:31:06.777Z,100051.44
2023-02-14T08:33:34.881Z,100042.53
2023-02-14T08:36:03.066Z,100054.25
2023-02-14T08:38:31.208Z,100040.97
2023-02-14T08:41:03.924Z,100052.25
2023-02-14T08:43:35.356Z,100059.25
2023-02-14T08:46:03.575Z,100039.03
2023-02-14T08:48:31.818Z,100054.19
2023-02-14T08:51:00.195Z,100050.16
2023-02-14T08:53:28.578Z,100055.75
2023-02-14T08:55:56.605Z,100057.56
2023-02-14T08:58:24.737Z,100059.59
2023-02-14T09:00:55.742Z,100061.22
2023-02-14T09:03:23.952Z,100075.28
2023-02-14T09:05:52.298Z,100061.94
2023-02-14T09:08:20.607Z,100084.97
2023-02-14T09:10:48.689Z,100077.66
2023-02-14T09:13:16.814Z,100084.66
2023-02-14T09:15:45.108Z,100084.88
2023-02-14T09:18:15.271Z,100087.19
2023-02-14T09:20:44.465Z,100085.72
2023-02-14T09:23:12.476Z,100088.78
2023-02-14T09:25:41.169Z,100081.34
2023-02-14T09:28:09.194Z,100097.13
2023-02-14T09:30:37.257Z,100103.31
2023-02-14T09:33:05.511Z,100097.13
2023-02-14T09:35:52.563Z,100089.56
2023-02-14T09:38:20.875Z,100092.03
2023-02-14T09:40:50.647Z,100105.94
2023-02-14T09:43:24.917Z,100092.16
2023-02-14T09:45:56.513Z,100098.06
2023-02-14T09:48:32.530Z,100093.91
2023-02-14T09:51:05.079Z,100094.88
2023-02-14T09:53:36.423Z,100091.97
2023-02-14T09:56:12.081Z,100082.28
2023-02-14T09:58:47.103Z,100096.22
2023-02-14T10:01:23.415Z,100093.97
2023-02-14T10:04:22.308Z,100099.34
2023-02-14T10:06:56.109Z,100087.53
2023-02-14T10:09:42.649Z,100083.66
2023-02-14T10:12:17.982Z,100093.22
2023-02-14T10:14:46.586Z,100096.75
2023-02-14T10:17:19.542Z,100094.53
2023-02-14T10:19:52.810Z,100100.13
2023-02-14T10:22:27.404Z,100094.06
2023-02-14T10:25:01.311Z,100083.78
2023-02-14T10:27:34.030Z,100091.72
2023-02-14T10:30:03.509Z,100092.66
2023-02-14T10:32:38.960Z,100083.47
2023-02-14T10:35:17.298Z,100106.59
2023-02-14T10:37:59.003Z,100094.69
2023-02-14T10:40:46.999Z,100094.69
2023-02-14T10:43:24.670Z,100092.50
2023-02-14T10:46:03.688Z,100094.53
2023-02-14T10:48:44.149Z,100093.19
2023-02-14T10:51:17.918Z,100079.97
2023-02-14T10:54:01.824Z,100080.66
2023-02-14T10:56:36.641Z,100075.91
2023-02-14T10:59:16.412Z,100074.97
2023-02-14T11:01:45.104Z,100078.47
2023-02-14T11:04:14.761Z,100074.19
2023-02-14T11:06:42.822Z,100074.94
2023-02-14T11:09:13.029Z,100086.22
2023-02-14T11:11:44.973Z,100075.69
2023-02-14T11:14:24.887Z,100065.16
2023-02-14T11:16:54.662Z,100079.91
2023-02-14T11:19:26.340Z,100069.97
2023-02-14T11:21:55.880Z,100067.28
2023-02-14T11:24:31.440Z,100057.16
2023-02-14T11:27:01.796Z,100055.63
2023-02-14T11:29:32.602Z,100051.66
2023-02-14T11:32:09.762Z,100057.84
2023-02-14T11:34:40.552Z,100041.84
2023-02-14T11:37:26.263Z,100049.22
2023-02-14T11:39:59.083Z,100050.44
2023-02-14T11:42:38.222Z,100042.25
2023-02-14T11:45:07.637Z,100026.16
2023-02-14T11:47:41.515Z,100041.63
2023-02-14T11:50:23.362Z,100042.97
2023-02-14T11:52:54.181Z,100034.63
2023-02-14T11:55:29.555Z,100038.94
2023-02-14T11:57:58.813Z,100033.16
2023-02-14T12:00:27.912Z,100033.41
2023-02-14T12:02:57.127Z,100048.03
2023-02-14T12:05:29.391Z,100033.59
2023-02-14T12:08:01.070Z,100040.34
2023-02-14T12:10:31.874Z,100033.78
2023-02-14T12:13:01.699Z,100029.00
2023-02-14T12:15:36.874Z,100035.53
2023-02-14T12:18:52.833Z,100025.78
2023-02-14T12:21:42.292Z,100008.63
2023-02-14T12:24:19.890Z,100014.97
2023-02-14T12:26:58.437Z,100021.56
2023-02-14T12:29:33.335Z,100019.47
2023-02-14T12:32:09.385Z,100007.50
2023-02-14T12:34:37.723Z,100000.53
2023-02-14T12:37:18.180Z,100027.84
2023-02-14T12:40:20.394Z,99996.09
2023-02-14T12:43:11.633Z,99998.34
2023-02-14T12:46:05.135Z,99994.91
2023-02-14T12:48:44.205Z,100004.13
2023-02-14T12:51:18.475Z,99997.53
2023-02-14T12:54:06.194Z,99979.34
2023-02-14T12:56:47.112Z,99973.19
2023-02-14T12:59:28.933Z,99971.78
2023-02-14T13:02:34.420Z,99982.53
2023-02-14T13:05:07.970Z,99986.72
2023-02-14T13:07:52.699Z,99973.25
2023-02-14T13:10:33.815Z,99971.50
2023-02-14T13:13:07.783Z,99967.50
2023-02-14T13:15:45.602Z,99980.22
2023-02-14T13:18:20.185Z,99974.31
2023-02-14T13:20:53.501Z,99981.56
2023-02-14T13:23:28.731Z,99965.94
2023-02-14T13:26:02.675Z,99966.31
2023-02-14T13:28:33.037Z,99963.84
2023-02-14T13:31:03.355Z,99966.94
2023-02-14T13:33:36.840Z,99968.22
2023-02-14T13:36:09.222Z,99958.31
2023-02-14T13:38:44.277Z,99956.97
2023-02-14T13:41:13.460Z,99950.78
2023-02-14T13:43:53.585Z,99961.38
2023-02-14T13:46:42.329Z,99949.19
2023-02-14T13:49:27.239Z,99964.25
2023-02-14T13:51:57.344Z,99946.97
2023-02-14T13:54:41.135Z,99959.91
2023-02-14T13:57:36.681Z,99960.31
2023-02-14T14:00:50.371Z,99958.97
2023-02-14T14:03:57.307Z,99961.34
2023-02-14T14:06:25.449Z,99941.22
2023-02-14T14:08:57.110Z,99965.66
2023-02-14T14:11:59.728Z,99947.63
2023-02-14T14:14:36.334Z,99954.97
2023-02-14T14:17:20.744Z,99945.28
2023-02-14T14:19:50.513Z,99954.31
2023-02-14T14:22:20.000Z,99952.72
2023-02-14T14:24:57.451Z,99961.31
2023-02-14T14:27:30.851Z,99948.09
2023-02-14T14:30:01.147Z,99957.78
2023-02-14T14:32:31.528Z,99953.75
2023-02-14T14:35:03.915Z,99957.78
2023-02-14T14:37:34.894Z,99960.38
2023-02-14T14:40:06.616Z,99961.16
2023-02-14T14:42:43.014Z,99966.44
2023-02-14T14:45:22.988Z,99958.81
2023-02-14T14:47:54.367Z,99958.72
2023-02-14T14:50:26.520Z,99948.91
2023-02-14T14:52:57.016Z,99967.94
2023-02-14T14:55:27.676Z,99973.84
2023-02-14T14:57:58.536Z,99968.22
2023-02-14T15:00:29.619Z,99964.88
2023-02-14T15:03:04.149Z,99970.38
2023-02-14T15:05:36.158Z,99960.75
2023-02-14T15:08:20.979Z,99968.34
2023-02-14T15:10:54.448Z,99966.44
2023-02-14T15:13:48.553Z,99963.09
2023-02-14T15:16:20.455Z,99964.50
2023-02-14T15:18:49.486Z,99969.69
2023-02-14T15:21:19.101Z,99975.13
2023-02-14T15:23:47.866Z,99977.03
2023-02-14T15:26:24.330Z,99973.00
2023-02-14T15:28:58.116Z,99970.25
2023-02-14T15:31:30.843Z,99975.75
2023-02-14T15:34:01.509Z,99982.25
2023-02-14T15:36:32.644Z,99985.53
2023-02-14T15:39:03.521Z,99975.53
2023-02-14T15:41:31.807Z,99985.56
2023-02-14T15:44:00.585Z,99997.91
2023-02-14T15:46:35.321Z,99992.16
2023-02-14T15:49:10.751Z,99987.88
2023-02-14T15:51:41.050Z,99983.63
2023-02-14T15:54:20.021Z,99997.03
2023-02-14T15:56:51.438Z,99988.66
2023-02-14T15:59:22.131Z,99994.50
2023-02-14T16:01:52.965Z,99991.81
2023-02-14T16:04:25.796Z,100000.94
2023-02-14T16:07:22.674Z,99995.63
2023-02-14T16:09:51.716Z,99995.22
2023-02-14T16:12:32.471Z,100009.97
2023-02-14T16:15:04.801Z,100012.53
2023-02-14T16:17:34.823Z,100005.41
2023-02-14T16:20:23.629Z,100016.31
2023-02-14T16:22:53.210Z,100015.88
2023-02-14T16:25:21.789Z,100019.66
2023-02-14T16:27:49.887Z,100019.78
2023-02-14T16:30:19.329Z,100028.50
2023-02-14T16:32:53.745Z,100012.56
2023-02-14T16:35:22.910Z,100014.06
2023-02-14T16:37:53.353Z,100019.44
2023-02-14T16:40:26.375Z,100010.66
2023-02-14T16:42:54.954Z,100021.22
2023-02-14T16:45:23.285Z,100020.94
2023-02-14T16:47:51.558Z,100009.63
2023-02-14T16:50:20.479Z,100015.78
2023-02-14T16:52:52.688Z,100022.53
2023-02-14T16:55:21.156Z,100015.66
2023-02-14T16:57:51.424Z,100022.88
2023-02-14T17:00:20.134Z,100024.84
2023-02-14T17:02:48.416Z,100026.69
2023-02-14T17:05:16.640Z,100031.06
2023-02-14T17:07:45.367Z,100024.31
2023-02-14T17:10:19.700Z,100032.69
2023-02-14T17:12:50.066Z,100031.56
2023-02-14T17:15:24.628Z,100033.00
2023-02-14T17:17:58.038Z,100043.03
2023-02-14T17:20:26.279Z,100033.97
2023-02-14T17:22:55.584Z,100034.59
2023-02-14T17:25:25.527Z,100030.69
2023-02-14T17:27:53.942Z,100036.41
2023-02-14T17:30:22.094Z,100036.59
2023-02-14T17:32:50.831Z,100030.00
2023-02-14T17:35:20.198Z,100043.50
2023-02-14T17:37:48.469Z,100036.13
2023-02-14T17:40:16.729Z,100041.03
2023-02-14T17:42:46.229Z,100039.84
2023-02-14T17:45:14.286Z,100035.03
2023-02-14T17:47:43.563Z,100042.00
2023-02-14T17:50:13.155Z,100036.28
2023-02-14T17:52:41.344Z,100036.22
2023-02-14T17:55:10.231Z,100040.41
2023-02-14T17:57:40.913Z,100031.78
2023-02-14T18:00:12.208Z,100039.09
2023-02-14T18:02:43.231Z,100041.13
2023-02-14T18:05:12.485Z,100039.63
2023-02-14T18:07:40.549Z,100038.41
2023-02-14T18:10:09.230Z,100043.91
2023-02-14T18:12:37.267Z,100039.88
2023-02-14T18:15:06.105Z,100052.84
2023-02-14T18:17:35.591Z,100041.88
2023-02-14T18:20:05.369Z,100042.00
2023-02-14T18:22:33.604Z,100053.19
2023-02-14T18:25:01.692Z,100043.59
2023-02-14T18:27:29.755Z,100043.53
2023-02-14T18:29:57.813Z,100042.19
2023-02-14T18:32:25.993Z,100045.91
2023-02-14T18:34:55.408Z,100039.50
2023-02-14T18:37:23.450Z,100047.75
2023-02-14T18:39:51.479Z,100030.91
2023-02-14T18:42:19.537Z,100033.50
2023-02-14T18:44:47.566Z,100037.84
2023-02-14T18:47:15.645Z,100038.53
2023-02-14T18:49:43.665Z,100034.78
2023-02-14T18:52:13.124Z,100032.03
2023-02-14T18:54:41.271Z,100030.22
2023-02-14T18:57:09.503Z,100025.56
2023-02-14T18:59:37.584Z,100023.84
2023-02-14T19:02:05.862Z,100016.38
2023-02-14T19:04:33.973Z,100014.97
2023-02-14T19:07:04.498Z,100018.72
2023-02-14T19:09:39.019Z,100010.44
2023-02-14T19:12:07.667Z,100018.44
2023-02-14T19:14:35.773Z,100026.75
2023-02-14T19:17:05.648Z,100024.03
2023-02-14T19:19:33.801Z,100025.16
2023-02-14T19:22:02.570Z,100019.94
2023-02-14T19:24:30.945Z,100026.63
2023-02-14T19:27:00.376Z,100021.91
2023-02-14T19:29:28.482Z,100013.94
2023-02-14T19:31:56.591Z,100009.47
2023-02-14T19:34:28.940Z,100027.47
2023-02-14T19:36:59.856Z,100025.75
2023-02-14T19:39:30.658Z,100006.91
2023-02-14T19:42:01.343Z,100024.16
2023-02-14T19:44:31.393Z,100014.22
2023-02-14T19:47:04.179Z,100012.97
2023-02-14T19:49:36.339Z,100022.13
2023-02-14T19:52:06.296Z,100010.47
2023-02-14T19:54:39.409Z,100018.59
2023-02-14T19:57:08.899Z,100018.34
2023-02-14T19:59:36.970Z,100026.75
2023-02-14T20:02:05.299Z,100022.47
2023-02-14T20:04:33.428Z,100022.13
2023-02-14T20:07:01.529Z,100014.66
2023-02-14T20:09:29.615Z,100027.38
2023-02-14T20:12:01.479Z,100021.06
2023-02-14T20:14:40.805Z,100030.47
2023-02-14T20:17:17.387Z,100025.84
2023-02-14T20:19:45.485Z,100026.34
2023-02-14T20:22:15.357Z,100025.78
2023-02-14T20:24:43.411Z,100020.78
2023-02-14T20:27:11.567Z,100026.63
2023-02-14T20:29:43.292Z,100023.13
2023-02-14T20:32:12.403Z,100016.91
2023-02-14T20:34:40.878Z,100020.91
2023-02-14T20:37:11.188Z,100021.22
2023-02-14T20:39:39.586Z,100012.78
2023-02-14T20:42:08.741Z,100017.72
2023-02-14T20:44:36.924Z,100023.19
2023-02-14T20:47:06.845Z,100019.19
2023-02-14T20:49:35.893Z,100015.16
2023-02-14T20:52:04.430Z,100010.97
2023-02-14T20:54:32.673Z,100009.47
2023-02-14T20:57:00.760Z,100006.31
2023-02-14T20:59:29.076Z,100008.03
2023-02-14T21:01:58.635Z,100010.03
2023-02-14T21:04:28.805Z,100015.28
2023-02-14T21:06:57.976Z,100012.19
2023-02-14T21:09:26.358Z,100008.28
2023-02-14T21:11:54.957Z,100006.72
2023-02-14T21:14:23.066Z,100009.03
2023-02-14T21:16:51.124Z,100004.06
2023-02-14T21:19:19.845Z,100011.34
2023-02-14T21:21:49.283Z,100010.94
2023-02-14T21:24:17.777Z,100003.75
2023-02-14T21:26:46.272Z,100003.63
2023-02-14T21:29:14.328Z,100005.84
2023-02-14T21:31:43.129Z,100006.63
2023-02-14T21:34:11.400Z,100016.00
2023-02-14T21:36:39.452Z,100015.47
2023-02-14T21:39:09.380Z,100011.34
2023-02-14T21:41:38.057Z,100003.03
2023-02-14T21:44:07.140Z,100006.94
2023-02-14T21:46:41.230Z,100003.69
2023-02-14T21:49:26.762Z,100007.22
2023-02-14T21:51:54.808Z,100015.75
2023-02-14T21:54:24.231Z,100011.63
2023-02-14T21:56:52.272Z,100009.91
2023-02-14T21:59:20.312Z,100006.38
2023-02-14T22:01:48.472Z,100004.41
2023-02-14T22:04:16.568Z,100000.19
2023-02-14T22:06:44.634Z,99993.25
2023-02-14T22:09:18.740Z,99993.59
2023-02-14T22:11:48.621Z,100001.09
2023-02-14T22:14:16.823Z,99990.03
2023-02-14T22:16:44.848Z,99993.59
2023-02-14T22:19:16.219Z,99990.84
2023-02-14T22:21:44.584Z,100001.50
2023-02-14T22:24:12.844Z,99986.91
2023-02-14T22:26:41.883Z,99993.50
2023-02-14T22:29:13.358Z,99992.03
2023-02-14T22:31:43.514Z,99983.53
2023-02-14T22:34:14.588Z,99985.38
2023-02-14T22:36:42.890Z,99975.03
2023-02-14T22:39:13.784Z,99979.28
2023-02-14T22:41:41.878Z,99976.34
2023-02-14T22:44:11.463Z,99978.06
2023-02-14T22:46:39.616Z,99984.72
2023-02-14T22:49:08.310Z,99993.41
2023-02-14T22:51:38.235Z,99982.50
2023-02-14T22:54:08.524Z,99987.22
2023-02-14T22:56:38.911Z,99981.06
2023-02-14T22:59:09.154Z,99984.09
2023-02-14T23:01:38.639Z,99982.44
2023-02-14T23:04:07.074Z,99991.34
2023-02-14T23:06:37.226Z,99980.00
2023-02-14T23:09:06.917Z,99980.88
2023-02-14T23:11:37.878Z,99982.69
2023-02-14T23:14:24.888Z,99982.19
2023-02-14T23:17:12.092Z,99973.22
2023-02-14T23:19:57.448Z,99969.59
2023-02-14T23:22:28.081Z,99974.69
2023-02-14T23:24:58.371Z,99968.88
2023-02-14T23:27:30.561Z,99967.19
2023-02-14T23:29:58.732Z,99969.00
2023-02-14T23:32:28.288Z,99981.63
2023-02-14T23:34:56.396Z,99973.81
2023-02-14T23:37:24.502Z,99966.56
2023-02-14T23:39:52.555Z,99974.31
2023-02-14T23:42:20.633Z,99968.59
2023-02-14T23:44:49.521Z,99962.91
2023-02-14T23:47:18.014Z,99955.91
2023-02-14T23:49:47.590Z,99941.25
2023-02-14T23:52:15.662Z,99936.88
2023-02-14T23:54:43.723Z,99946.50
2023-02-14T23:57:12.041Z,99947.50
2023-02-14T23:59:40.086Z,99934.75
